Time;durP1;ratioP1;P1;durP2;ratioP2;P2;SDS_P1;SDS_P2;PMS_P1;PMS_P2;Temp;Humidity;BMP_temperature;BMP_pressure;BME280_temperature;BME280_humidity;BME280_pressure;Samples;Min_cycle;Max_cycle;Signal;HPM_P1;HPM_P2
2022/02/15 00:01:23;;;;;;;2.90;2.60;;;5.60;99.90;;;;;;5033379;22;20049;-66
2022/02/15 00:03:49;;;;;;;3.65;2.42;;;5.60;99.90;;;;;;5026596;23;20388;-66
2022/02/15 00:06:14;;;;;;;3.72;2.50;;;5.60;99.90;;;;;;5028209;23;20459;-65
2022/02/15 00:08:40;;;;;;;3.45;2.65;;;5.60;99.90;;;;;;5017283;23;20054;-65
2022/02/15 00:11:06;;;;;;;4.90;2.88;;;5.60;99.90;;;;;;5026519;23;20232;-65
2022/02/15 00:13:31;;;;;;;3.13;2.47;;;5.60;99.90;;;;;;5029054;23;20081;-66
2022/02/15 00:15:57;;;;;;;3.80;2.63;;;5.60;99.90;;;;;;5025215;23;20046;-66
2022/02/15 00:18:22;;;;;;;3.17;2.40;;;5.60;99.90;;;;;;5025806;23;20056;-65
2022/02/15 00:20:48;;;;;;;3.83;3.10;;;5.60;99.90;;;;;;5018462;23;20056;-65
2022/02/15 00:23:14;;;;;;;2.97;2.42;;;5.60;99.90;;;;;;5025382;23;20054;-65
2022/02/15 00:25:39;;;;;;;4.10;2.47;;;5.60;99.90;;;;;;5025423;23;20419;-65
2022/02/15 00:28:05;;;;;;;2.58;2.38;;;5.60;99.90;;;;;;5026829;23;20052;-65
2022/02/15 00:30:31;;;;;;;3.75;2.63;;;5.50;99.90;;;;;;5023768;23;20025;-65
2022/02/15 00:32:56;;;;;;;3.55;2.63;;;5.50;99.90;;;;;;5031125;23;20081;-65
2022/02/15 00:35:22;;;;;;;3.08;2.78;;;5.50;99.90;;;;;;5013835;23;20065;-65
2022/02/15 00:37:48;;;;;;;5.15;2.70;;;5.50;99.90;;;;;;5023437;23;20068;-65
2022/02/15 00:40:15;;;;;;;5.43;3.20;;;5.50;99.90;;;;;;5024872;23;20054;-65
2022/02/15 00:42:41;;;;;;;3.10;2.72;;;5.50;99.90;;;;;;5041009;23;20046;-65
2022/02/15 00:45:08;;;;;;;3.95;3.17;;;5.40;99.90;;;;;;5043795;23;20071;-65
2022/02/15 00:50:01;;;;;;;4.90;3.30;;;5.40;99.90;;;;;;4988664;28;20062;-52
2022/02/15 00:52:27;;;;;;;5.80;3.40;;;5.40;99.90;;;;;;4990160;28;20022;-52
2022/02/15 00:54:54;;;;;;;4.55;3.58;;;5.40;99.90;;;;;;4974936;28;20100;-51
2022/02/15 00:57:22;;;;;;;3.80;3.17;;;5.40;99.90;;;;;;4980326;28;20089;-54
2022/02/15 00:59:48;;;;;;;3.50;3.13;;;5.40;99.90;;;;;;4974952;28;20441;-52
2022/02/15 01:02:14;;;;;;;3.72;3.00;;;5.40;99.90;;;;;;4988152;28;20042;-52
2022/02/15 01:04:40;;;;;;;12.25;3.97;;;5.40;99.90;;;;;;4990727;28;20045;-53
2022/02/15 01:07:06;;;;;;;7.10;4.22;;;5.40;99.90;;;;;;4990357;28;20030;-53
2022/02/15 01:09:32;;;;;;;5.10;3.85;;;5.40;99.90;;;;;;4989956;28;20072;-52
2022/02/15 01:11:57;;;;;;;10.27;4.05;;;5.40;99.90;;;;;;4990327;28;20065;-52
2022/02/15 01:14:23;;;;;;;21.63;5.28;;;5.30;99.90;;;;;;4982362;28;20113;-54
2022/02/15 01:16:48;;;;;;;6.18;3.85;;;5.40;99.90;;;;;;4985316;28;20034;-52
2022/02/15 01:19:14;;;;;;;5.75;3.42;;;5.30;99.90;;;;;;4988187;28;20045;-52
2022/02/15 01:21:40;;;;;;;4.53;3.35;;;5.30;99.90;;;;;;4988496;28;20533;-52
2022/02/15 01:24:06;;;;;;;8.20;3.72;;;5.30;99.90;;;;;;4990693;28;20371;-54
2022/02/15 01:26:32;;;;;;;7.53;3.75;;;5.30;99.90;;;;;;4990501;28;20030;-54
2022/02/15 01:28:57;;;;;;;8.88;4.65;;;5.30;99.90;;;;;;4990359;28;20033;-54
2022/02/15 01:31:23;;;;;;;5.53;3.55;;;5.30;99.90;;;;;;4988560;28;20073;-52
2022/02/15 01:33:49;;;;;;;6.18;4.32;;;5.30;99.90;;;;;;4990118;28;20030;-53
2022/02/15 01:36:14;;;;;;;6.43;4.88;;;5.30;99.90;;;;;;4990666;28;20030;-54
2022/02/15 01:38:40;;;;;;;4.63;3.58;;;5.30;99.90;;;;;;4990277;28;20026;-52
2022/02/15 01:41:07;;;;;;;4.07;3.28;;;5.30;99.90;;;;;;4988872;28;20038;-53
2022/02/15 01:43:37;;;;;;;4.38;3.10;;;5.30;99.90;;;;;;4980401;28;20049;-52
2022/02/15 01:46:02;;;;;;;4.50;3.88;;;5.30;99.90;;;;;;4977127;28;20910;-52
2022/02/15 01:48:28;;;;;;;3.55;3.22;;;5.30;99.90;;;;;;4990101;28;20121;-52
2022/02/15 01:50:58;;;;;;;5.20;3.67;;;5.30;99.90;;;;;;4988648;28;20023;-53
2022/02/15 01:53:24;;;;;;;4.93;3.60;;;5.30;99.90;;;;;;4989017;28;20034;-53
2022/02/15 01:55:50;;;;;;;5.40;3.42;;;5.30;99.90;;;;;;4989978;28;20030;-52
2022/02/15 01:58:17;;;;;;;5.75;3.63;;;5.30;99.90;;;;;;4990652;28;20040;-55
2022/02/15 02:00:42;;;;;;;8.55;4.38;;;5.30;99.90;;;;;;4989167;28;20023;-50
2022/02/15 02:03:08;;;;;;;6.10;3.78;;;5.30;99.90;;;;;;4989805;28;20034;-51
2022/02/15 02:05:49;;;;;;;12.40;5.03;;;5.20;99.90;;;;;;4989293;28;20044;-51
2022/02/15 02:08:20;;;;;;;5.57;3.83;;;5.30;99.90;;;;;;4985583;28;20030;-52
2022/02/15 02:10:47;;;;;;;9.38;4.10;;;5.30;99.90;;;;;;4988933;28;20026;-52
2022/02/15 02:13:13;;;;;;;5.15;4.03;;;5.30;99.90;;;;;;4989297;28;20514;-51
2022/02/15 02:15:39;;;;;;;9.05;4.25;;;5.20;99.90;;;;;;4989804;28;20037;-51
2022/02/15 02:18:06;;;;;;;6.07;4.35;;;5.20;99.90;;;;;;4990538;28;20379;-51
2022/02/15 02:20:32;;;;;;;7.00;4.18;;;5.20;99.90;;;;;;4988180;28;20041;-52
2022/02/15 02:22:58;;;;;;;6.45;4.43;;;5.20;99.90;;;;;;4988945;28;20034;-52
2022/02/15 02:25:24;;;;;;;5.28;3.92;;;5.20;99.90;;;;;;5004002;28;20058;-51
2022/02/15 02:27:50;;;;;;;7.47;4.38;;;5.20;99.90;;;;;;5004865;28;20085;-50
2022/02/15 02:30:17;;;;;;;7.80;4.60;;;5.20;99.90;;;;;;4988566;28;20061;-50
2022/02/15 02:32:42;;;;;;;6.97;4.65;;;5.20;99.90;;;;;;4993189;28;20381;-50
2022/02/15 02:35:09;;;;;;;6.70;4.22;;;5.20;99.90;;;;;;4993479;28;20105;-51
2022/02/15 02:37:35;;;;;;;7.22;4.60;;;5.20;99.90;;;;;;4993527;28;20058;-53
2022/02/15 02:40:03;;;;;;;7.45;4.80;;;5.20;99.90;;;;;;4992250;28;20040;-50
2022/02/15 02:42:30;;;;;;;6.07;4.43;;;5.20;99.90;;;;;;4993049;28;20537;-50
2022/02/15 02:44:59;;;;;;;7.75;5.05;;;5.20;99.90;;;;;;4993053;28;20061;-51
2022/02/15 02:47:27;;;;;;;5.97;4.43;;;5.20;99.90;;;;;;4985178;28;20026;-50
2022/02/15 02:49:54;;;;;;;6.22;4.63;;;5.30;99.90;;;;;;4987536;28;20459;-50
2022/02/15 02:52:21;;;;;;;6.40;4.15;;;5.20;99.90;;;;;;4991754;28;20034;-50
2022/02/15 02:54:46;;;;;;;7.70;4.63;;;5.20;99.90;;;;;;4991718;28;20370;-52
2022/02/15 02:57:12;;;;;;;10.07;5.45;;;5.20;99.90;;;;;;4992875;28;20034;-50
2022/02/15 02:59:40;;;;;;;9.30;4.65;;;5.20;99.90;;;;;;4992949;28;20088;-51
2022/02/15 03:02:07;;;;;;;6.47;4.70;;;5.20;99.90;;;;;;4990331;28;20034;-50
2022/02/15 03:04:32;;;;;;;7.05;5.05;;;5.20;99.90;;;;;;4990618;28;20029;-50
2022/02/15 03:06:58;;;;;;;5.72;4.35;;;5.30;99.90;;;;;;4988115;28;20034;-50
2022/02/15 03:09:24;;;;;;;8.82;5.53;;;5.30;99.90;;;;;;4988954;28;20092;-50
2022/02/15 03:11:51;;;;;;;7.20;4.43;;;5.30;99.90;;;;;;4985772;28;20412;-50
2022/02/15 03:14:17;;;;;;;8.23;5.38;;;5.20;99.90;;;;;;4988242;28;20033;-50
2022/02/15 03:16:43;;;;;;;8.48;4.50;;;5.30;99.90;;;;;;4987742;28;20231;-50
2022/02/15 03:19:08;;;;;;;8.38;5.07;;;5.30;99.90;;;;;;4986800;28;20038;-51
2022/02/15 03:21:34;;;;;;;8.55;5.45;;;5.30;99.90;;;;;;4989211;28;20039;-51
2022/02/15 03:23:59;;;;;;;6.43;4.35;;;5.20;99.90;;;;;;4985677;28;20046;-51
2022/02/15 03:26:25;;;;;;;7.60;4.78;;;5.20;99.90;;;;;;4989248;28;20156;-52
2022/02/15 03:28:51;;;;;;;8.60;5.60;;;5.20;99.90;;;;;;4990398;28;20241;-50
2022/02/15 03:31:17;;;;;;;8.93;5.25;;;5.20;99.90;;;;;;4987363;28;20500;-51
2022/02/15 03:33:44;;;;;;;6.65;4.82;;;5.20;99.90;;;;;;4977622;28;20138;-51
2022/02/15 03:36:10;;;;;;;11.32;5.30;;;5.20;99.90;;;;;;4988412;28;20502;-50
2022/02/15 03:38:36;;;;;;;8.65;5.25;;;5.20;99.90;;;;;;4992289;28;20022;-51
2022/02/15 03:43:46;;;;;;;8.45;5.38;;;5.20;99.90;;;;;;4981549;28;20097;-51
2022/02/15 03:46:11;;;;;;;7.90;5.05;;;5.20;99.90;;;;;;4990133;28;20077;-51
2022/02/15 03:48:37;;;;;;;7.15;4.70;;;5.20;99.90;;;;;;4989004;28;20084;-53
2022/02/15 03:51:03;;;;;;;6.60;4.80;;;5.20;99.90;;;;;;4988757;28;20030;-52
2022/02/15 03:53:32;;;;;;;8.20;4.65;;;5.20;99.90;;;;;;4989014;28;20419;-54
2022/02/15 03:55:57;;;;;;;;;;;5.20;99.90;;;;;;5003579;28;20038;-51
2022/02/15 03:58:23;;;;;;;6.70;4.75;;;5.20;99.90;;;;;;4990854;28;19917;-51
2022/02/15 04:00:49;;;;;;;8.00;4.95;;;5.10;99.90;;;;;;4989684;28;20042;-51
2022/02/15 04:03:14;;;;;;;8.43;4.65;;;5.20;99.90;;;;;;4981083;28;20134;-51
2022/02/15 04:05:40;;;;;;;12.55;5.00;;;5.20;99.90;;;;;;4983395;28;20034;-51
2022/02/15 04:08:06;;;;;;;6.82;4.40;;;5.20;99.90;;;;;;4988112;28;20038;-52
2022/02/15 04:10:32;;;;;;;9.82;5.68;;;5.20;99.90;;;;;;4986591;28;20367;-51
2022/02/15 04:12:57;;;;;;;9.73;5.30;;;5.20;99.90;;;;;;5002762;28;20031;-50
2022/02/15 04:15:23;;;;;;;8.32;4.93;;;5.20;99.90;;;;;;4988709;28;20034;-50
2022/02/15 04:17:49;;;;;;;10.10;5.53;;;5.20;99.90;;;;;;4981579;28;20027;-51
2022/02/15 04:20:15;;;;;;;12.75;6.00;;;5.20;99.90;;;;;;4988352;28;20030;-50
2022/02/15 04:22:43;;;;;;;12.27;6.50;;;5.20;99.90;;;;;;4989532;28;20031;-50
2022/02/15 04:25:10;;;;;;;16.60;8.07;;;5.20;99.90;;;;;;4988123;28;21900;-51
2022/02/15 04:27:36;;;;;;;9.52;5.15;;;5.20;99.90;;;;;;4989758;28;20387;-52
2022/02/15 04:30:02;;;;;;;7.60;5.10;;;5.20;99.90;;;;;;4990292;28;20474;-52
2022/02/15 04:32:31;;;;;;;11.45;6.38;;;5.20;99.90;;;;;;4988984;28;20461;-52
2022/02/15 04:34:57;;;;;;;11.65;5.68;;;5.20;99.90;;;;;;4989338;28;20035;-51
2022/02/15 04:37:22;;;;;;;9.48;5.78;;;5.20;99.90;;;;;;4986670;28;20546;-51
2022/02/15 04:39:48;;;;;;;7.78;5.30;;;5.10;99.90;;;;;;4980232;28;20031;-53
2022/02/15 04:42:16;;;;;;;7.85;5.00;;;5.10;99.90;;;;;;4979793;28;20375;-53
2022/02/15 04:44:42;;;;;;;8.07;5.15;;;5.10;99.90;;;;;;4981639;28;20026;-51
2022/02/15 04:47:08;;;;;;;9.85;5.22;;;5.10;99.90;;;;;;4981321;28;20490;-50
2022/02/15 04:49:34;;;;;;;7.22;4.72;;;5.00;99.90;;;;;;4986082;28;20050;-51
2022/02/15 04:52:00;;;;;;;9.05;5.43;;;5.00;99.90;;;;;;4989203;28;20019;-50
2022/02/15 04:54:26;;;;;;;10.43;5.88;;;5.00;99.90;;;;;;4986314;28;20041;-51
2022/02/15 04:56:52;;;;;;;9.23;6.05;;;4.90;99.90;;;;;;4989368;28;20038;-51
2022/02/15 04:59:18;;;;;;;10.00;6.38;;;4.90;99.90;;;;;;4988544;28;20047;-50
2022/02/15 05:01:44;;;;;;;9.65;5.22;;;4.80;99.90;;;;;;4978551;28;20086;-51
2022/02/15 05:04:48;;;;;;;7.15;4.50;;;4.80;99.90;;;;;;4983867;28;20076;-49
2022/02/15 05:06:56;;;;;;;9.27;5.68;;;4.90;99.90;;;;;;4985042;28;20232;-52
2022/02/15 05:09:21;;;;;;;12.48;5.95;;;4.90;99.90;;;;;;4989257;28;20026;-51
2022/02/15 05:11:47;;;;;;;7.97;4.90;;;4.90;99.90;;;;;;4989856;28;20109;-50
2022/02/15 05:14:12;;;;;;;8.65;4.90;;;4.80;99.90;;;;;;4988333;28;20038;-50
2022/02/15 05:16:38;;;;;;;6.43;4.82;;;4.80;99.90;;;;;;4989103;28;20049;-51
2022/02/15 05:19:03;;;;;;;7.18;4.82;;;4.80;99.90;;;;;;4989238;28;20060;-51
2022/02/15 05:21:29;;;;;;;6.53;3.88;;;4.80;99.90;;;;;;4989098;28;20026;-52
2022/02/15 05:23:55;;;;;;;7.30;4.63;;;4.80;99.90;;;;;;4986931;28;20035;-51
2022/02/15 05:26:20;;;;;;;8.40;4.47;;;4.80;99.90;;;;;;4989529;28;20030;-51
2022/02/15 05:28:46;;;;;;;9.32;3.75;;;4.80;99.90;;;;;;4989028;28;20068;-52
2022/02/15 05:31:11;;;;;;;4.22;3.05;;;4.80;99.90;;;;;;4989539;28;20491;-50
2022/02/15 05:33:37;;;;;;;5.80;3.42;;;4.80;99.90;;;;;;4987221;28;20057;-51
2022/02/15 05:36:03;;;;;;;6.63;3.40;;;4.70;99.90;;;;;;4990048;28;20398;-52
2022/02/15 05:38:28;;;;;;;6.18;2.92;;;4.70;99.90;;;;;;4988849;28;20030;-51
2022/02/15 05:40:54;;;;;;;4.03;2.55;;;4.70;99.90;;;;;;4983795;28;20065;-53
2022/02/15 05:43:20;;;;;;;3.53;3.05;;;4.80;99.90;;;;;;4988577;28;20030;-51
2022/02/15 05:45:45;;;;;;;4.07;2.63;;;4.70;99.90;;;;;;4987003;28;20110;-51
2022/02/15 05:48:11;;;;;;;4.78;2.83;;;4.70;99.90;;;;;;4986776;28;20121;-51
2022/02/15 05:50:49;;;;;;;5.50;2.80;;;4.70;99.90;;;;;;4989472;28;20057;-52
2022/02/15 05:53:15;;;;;;;5.07;3.20;;;4.70;99.90;;;;;;4987256;28;20049;-51
2022/02/15 05:55:41;;;;;;;4.00;2.65;;;4.70;99.90;;;;;;4987680;28;20490;-51
2022/02/15 05:58:06;;;;;;;5.72;3.17;;;4.70;99.90;;;;;;4985344;28;20034;-51
2022/02/15 06:00:33;;;;;;;4.63;2.58;;;4.70;99.90;;;;;;4989229;28;20380;-51
2022/02/15 06:02:59;;;;;;;6.22;3.38;;;4.70;99.90;;;;;;4985442;28;20085;-51
2022/02/15 06:05:27;;;;;;;6.35;3.05;;;4.70;99.90;;;;;;4987252;28;20027;-51
2022/02/15 06:07:52;;;;;;;5.88;3.10;;;4.70;99.90;;;;;;4992618;28;20022;-51
2022/02/15 06:10:18;;;;;;;5.90;2.85;;;4.70;99.90;;;;;;4985598;28;20058;-53
2022/02/15 06:12:44;;;;;;;5.53;3.30;;;4.70;99.90;;;;;;4991957;28;20599;-49
2022/02/15 06:15:11;;;;;;;6.95;3.33;;;4.70;99.90;;;;;;4991822;28;20038;-54
2022/02/15 06:17:37;;;;;;;6.53;3.83;;;4.70;99.90;;;;;;4991417;28;20033;-51
2022/02/15 06:20:03;;;;;;;5.97;2.90;;;4.70;99.90;;;;;;4991745;28;20458;-51
2022/02/15 06:22:29;;;;;;;7.05;2.90;;;4.70;99.90;;;;;;4991110;28;20034;-51
2022/02/15 06:24:54;;;;;;;4.13;2.78;;;4.60;99.90;;;;;;4992953;28;20536;-53
2022/02/15 06:27:20;;;;;;;3.55;2.70;;;4.60;99.90;;;;;;4990851;28;20756;-51
2022/02/15 06:29:46;;;;;;;6.10;3.30;;;4.60;99.90;;;;;;4989316;28;20039;-51
2022/02/15 06:32:11;;;;;;;3.75;3.00;;;4.60;99.90;;;;;;4991103;28;20054;-51
2022/02/15 06:34:37;;;;;;;4.07;2.55;;;4.60;99.90;;;;;;4993355;28;20601;-52
2022/02/15 06:37:03;;;;;;;3.47;2.50;;;4.60;99.90;;;;;;5006182;28;20275;-53
2022/02/15 06:39:29;;;;;;;5.57;2.45;;;4.60;99.90;;;;;;4991607;28;20498;-51
2022/02/15 06:41:54;;;;;;;3.45;2.28;;;4.60;99.90;;;;;;4992154;28;20030;-49
2022/02/15 06:44:20;;;;;;;2.83;2.53;;;4.60;99.90;;;;;;4991526;28;20041;-51
2022/02/15 06:46:45;;;;;;;9.10;3.40;;;4.60;99.90;;;;;;4992006;28;20077;-51
2022/02/15 06:49:11;;;;;;;3.60;2.80;;;4.60;99.90;;;;;;4991191;28;20042;-51
2022/02/15 06:51:37;;;;;;;4.75;2.80;;;4.60;99.90;;;;;;4989927;28;20023;-52
2022/02/15 06:54:03;;;;;;;2.53;2.13;;;4.60;99.90;;;;;;4987093;28;20037;-51
2022/02/15 06:56:28;;;;;;;6.68;2.80;;;4.60;99.90;;;;;;4986415;28;20624;-52
2022/02/15 06:58:56;;;;;;;3.00;2.33;;;4.60;99.90;;;;;;4988853;28;20097;-50
2022/02/15 07:01:21;;;;;;;2.80;2.40;;;4.50;99.90;;;;;;4991007;28;20038;-51
2022/02/15 07:03:47;;;;;;;2.60;2.35;;;4.60;99.90;;;;;;4991066;28;20041;-50
2022/02/15 07:06:12;;;;;;;2.97;2.70;;;4.50;99.90;;;;;;4989723;28;20506;-52
2022/02/15 07:08:38;;;;;;;3.20;2.53;;;4.60;99.90;;;;;;4990149;28;20061;-51
2022/02/15 07:11:04;;;;;;;4.70;2.88;;;4.60;99.90;;;;;;4985630;28;20026;-51
2022/02/15 07:13:29;;;;;;;3.83;2.58;;;4.60;99.90;;;;;;4989360;28;20026;-51
2022/02/15 07:15:55;;;;;;;3.13;2.45;;;4.60;99.90;;;;;;4987586;28;20034;-51
2022/02/15 07:18:22;;;;;;;3.28;2.85;;;4.60;99.90;;;;;;4981574;28;20031;-53
2022/02/15 07:20:48;;;;;;;3.03;2.67;;;4.60;99.90;;;;;;4987970;28;20932;-51
2022/02/15 07:23:14;;;;;;;3.28;2.60;;;4.60;99.90;;;;;;4991902;28;20352;-51
2022/02/15 07:25:40;;;;;;;3.85;3.00;;;4.60;99.90;;;;;;4990224;28;20027;-52
2022/02/15 07:28:06;;;;;;;3.97;2.88;;;4.60;99.90;;;;;;4989978;28;20038;-51
2022/02/15 07:30:32;;;;;;;4.32;3.05;;;4.70;99.90;;;;;;4990900;28;20050;-51
2022/02/15 07:32:59;;;;;;;3.60;2.80;;;4.70;99.90;;;;;;4991420;28;20398;-54
2022/02/15 07:35:25;;;;;;;5.43;2.67;;;4.70;99.90;;;;;;4991153;28;20033;-52
2022/02/15 07:37:51;;;;;;;4.00;2.90;;;4.70;99.90;;;;;;4990250;28;20022;-51
2022/02/15 07:40:21;;;;;;;3.50;2.42;;;4.70;99.90;;;;;;4989457;28;20505;-51
2022/02/15 07:42:48;;;;;;;7.72;2.90;;;4.70;99.90;;;;;;4990596;28;20030;-51
2022/02/15 07:45:18;;;;;;;5.80;3.13;;;4.70;99.90;;;;;;4989098;28;20041;-51
2022/02/15 07:47:51;;;;;;;4.70;3.38;;;4.70;99.90;;;;;;4991256;28;20117;-51
2022/02/15 07:50:18;;;;;;;3.25;2.67;;;4.70;99.90;;;;;;4991024;28;20402;-52
2022/02/15 07:52:45;;;;;;;3.70;2.50;;;4.80;99.90;;;;;;4994031;28;20030;-51
2022/02/15 07:55:12;;;;;;;5.85;2.38;;;4.80;99.90;;;;;;4991122;28;20034;-51
2022/02/15 07:57:38;;;;;;;2.78;2.33;;;4.80;99.90;;;;;;4991009;28;20142;-52
2022/02/15 08:00:05;;;;;;;4.13;2.63;;;4.80;99.90;;;;;;4991004;28;20034;-51
2022/02/15 08:02:31;;;;;;;5.05;2.60;;;4.80;99.90;;;;;;4985341;28;20496;-52
2022/02/15 08:04:56;;;;;;;2.85;2.53;;;4.80;99.90;;;;;;4985224;28;20026;-51
2022/02/15 08:07:22;;;;;;;3.33;2.78;;;4.90;99.90;;;;;;4989653;28;20113;-51
2022/02/15 08:09:48;;;;;;;3.42;2.10;;;4.90;99.90;;;;;;4991217;28;20027;-53
2022/02/15 08:12:17;;;;;;;2.30;2.00;;;4.90;99.90;;;;;;4990695;28;20371;-51
2022/02/15 08:14:44;;;;;;;3.10;2.40;;;4.90;99.90;;;;;;4986424;28;20045;-51
2022/02/15 08:17:10;;;;;;;3.08;2.58;;;5.00;99.90;;;;;;4985269;28;20101;-51
2022/02/15 08:19:35;;;;;;;2.92;2.30;;;5.00;99.90;;;;;;4988204;28;20117;-51
2022/02/15 08:22:01;;;;;;;5.28;2.85;;;5.00;99.90;;;;;;4987865;28;20110;-51
2022/02/15 08:24:28;;;;;;;4.07;2.70;;;5.00;99.90;;;;;;4986997;28;20069;-51
2022/02/15 08:26:54;;;;;;;4.20;2.78;;;5.10;99.90;;;;;;4989967;28;20037;-52
2022/02/15 08:29:20;;;;;;;4.53;2.30;;;5.10;99.90;;;;;;4989090;28;20041;-51
2022/02/15 08:31:45;;;;;;;4.53;2.92;;;5.10;99.90;;;;;;4986177;28;20550;-51
2022/02/15 08:34:11;;;;;;;2.63;2.42;;;5.10;99.90;;;;;;4988693;28;20430;-52
2022/02/15 08:36:37;;;;;;;3.80;2.40;;;5.20;99.90;;;;;;4989337;28;20050;-51
2022/02/15 08:39:04;;;;;;;3.55;2.40;;;5.20;99.90;;;;;;4990648;28;20034;-51
2022/02/15 08:41:30;;;;;;;3.67;2.88;;;5.20;99.90;;;;;;4990061;28;20561;-50
2022/02/15 08:43:56;;;;;;;3.80;2.55;;;5.10;99.90;;;;;;4990177;28;20033;-53
2022/02/15 08:46:22;;;;;;;4.72;2.95;;;5.20;99.90;;;;;;4987131;28;20034;-51
2022/02/15 08:48:48;;;;;;;4.50;2.92;;;5.20;99.90;;;;;;4988997;28;20102;-52
2022/02/15 08:51:19;;;;;;;4.93;2.72;;;5.20;99.90;;;;;;4984015;28;20130;-52
2022/02/15 08:53:45;;;;;;;6.78;3.05;;;5.20;99.90;;;;;;4987798;28;20450;-51
2022/02/15 08:56:11;;;;;;;5.80;2.58;;;5.30;99.90;;;;;;4990531;28;20057;-52
2022/02/15 08:58:37;;;;;;;4.35;2.53;;;5.30;99.90;;;;;;4990834;28;20058;-51
2022/02/15 09:01:03;;;;;;;3.97;2.85;;;5.30;99.90;;;;;;4990511;28;20038;-51
2022/02/15 09:03:29;;;;;;;3.95;2.65;;;5.40;99.90;;;;;;4989394;28;20077;-52
2022/02/15 09:05:55;;;;;;;5.18;2.65;;;5.40;99.90;;;;;;4990701;28;20426;-52
2022/02/15 09:08:21;;;;;;;3.38;2.55;;;5.40;99.90;;;;;;4990933;28;20379;-53
2022/02/15 09:10:46;;;;;;;3.67;2.83;;;5.50;99.90;;;;;;4989972;28;20406;-52
2022/02/15 09:13:12;;;;;;;4.32;3.17;;;5.50;99.90;;;;;;4989903;28;20098;-52
2022/02/15 09:15:38;;;;;;;4.45;2.83;;;5.50;99.90;;;;;;4990439;28;20030;-50
2022/02/15 09:18:04;;;;;;;6.38;3.97;;;5.50;99.90;;;;;;4991570;28;20030;-52
2022/02/15 09:20:30;;;;;;;7.35;3.15;;;5.50;99.90;;;;;;4990648;28;20026;-51
2022/02/15 09:22:55;;;;;;;4.00;2.97;;;5.50;99.90;;;;;;4987797;28;20089;-52
2022/02/15 09:25:21;;;;;;;5.22;3.50;;;5.50;99.90;;;;;;4987252;28;20023;-52
2022/02/15 09:27:46;;;;;;;4.15;2.90;;;5.60;99.90;;;;;;4979659;28;20693;-52
2022/02/15 09:30:12;;;;;;;5.78;3.28;;;5.60;99.90;;;;;;4984187;28;20022;-52
2022/02/15 09:32:38;;;;;;;5.65;3.47;;;5.60;99.90;;;;;;4981687;28;20036;-52
2022/02/15 09:35:04;;;;;;;3.88;3.25;;;5.60;99.90;;;;;;4991673;28;20499;-51
2022/02/15 09:37:30;;;;;;;4.60;3.78;;;5.60;99.90;;;;;;4984216;28;20023;-52
2022/02/15 09:39:56;;;;;;;4.60;2.90;;;5.70;99.90;;;;;;4984611;28;20549;-51
2022/02/15 09:42:23;;;;;;;6.63;3.92;;;5.70;99.90;;;;;;4980835;28;20113;-52
2022/02/15 09:44:48;;;;;;;5.95;3.50;;;5.80;99.90;;;;;;4986686;28;20058;-51
2022/02/15 09:47:24;;;;;;;4.75;3.25;;;5.80;99.90;;;;;;4981862;28;20442;-51
2022/02/15 09:49:51;;;;;;;5.03;3.67;;;5.80;99.90;;;;;;4979798;28;20046;-51
2022/02/15 09:52:23;;;;;;;6.07;3.17;;;5.90;99.90;;;;;;4990717;28;20491;-53
2022/02/15 09:54:52;;;;;;;6.32;3.47;;;5.90;99.90;;;;;;4988723;28;20026;-51
2022/02/15 09:57:19;;;;;;;7.43;3.85;;;5.90;99.90;;;;;;4988793;28;20108;-52
2022/02/15 09:59:47;;;;;;;5.03;3.60;;;5.90;99.90;;;;;;4989894;28;20089;-51
2022/02/15 10:02:17;;;;;;;7.15;4.22;;;5.90;99.90;;;;;;4982381;28;20039;-51
2022/02/15 10:04:43;;;;;;;6.55;3.85;;;5.90;99.90;;;;;;4983737;28;20070;-51
2022/02/15 10:07:09;;;;;;;5.80;3.28;;;6.00;99.90;;;;;;4988845;28;20509;-51
2022/02/15 10:09:35;;;;;;;5.82;3.08;;;6.00;99.90;;;;;;4995131;28;20037;-53
2022/02/15 10:12:07;;;;;;;5.38;3.83;;;6.00;99.90;;;;;;4989200;28;20030;-51
2022/02/15 10:14:40;;;;;;;5.95;3.67;;;6.10;99.90;;;;;;4987120;28;20045;-51
2022/02/15 10:17:08;;;;;;;5.55;3.50;;;6.10;99.90;;;;;;4983384;28;20031;-51
2022/02/15 10:19:35;;;;;;;5.38;3.75;;;6.10;99.90;;;;;;4980238;28;20041;-52
2022/02/15 10:22:02;;;;;;;5.22;3.90;;;6.20;99.90;;;;;;4988513;28;20030;-51
2022/02/15 10:24:31;;;;;;;8.15;4.22;;;6.10;99.90;;;;;;4987788;28;20034;-53
2022/02/15 10:27:00;;;;;;;5.85;3.88;;;6.10;99.90;;;;;;4989275;28;20042;-53
2022/02/15 10:29:27;;;;;;;7.82;4.05;;;6.20;99.90;;;;;;4986236;28;20052;-52
2022/02/15 10:31:57;;;;;;;6.40;4.10;;;6.20;99.90;;;;;;4982035;28;20068;-51
2022/02/15 10:34:24;;;;;;;4.57;3.63;;;6.20;99.90;;;;;;4976713;28;20114;-51
2022/02/15 10:37:01;;;;;;;11.15;4.00;;;6.20;99.90;;;;;;4973917;28;20200;-49
2022/02/15 10:39:47;;;;;;;6.50;4.65;;;6.20;99.90;;;;;;4984926;28;20027;-49
2022/02/15 10:42:15;;;;;;;6.30;4.00;;;6.20;99.90;;;;;;4988402;28;20485;-52
2022/02/15 10:45:02;;;;;;;8.32;4.00;;;6.30;99.90;;;;;;4984470;28;22413;-51
2022/02/15 10:47:32;;;;;;;8.95;4.57;;;6.30;99.90;;;;;;4983391;28;20080;-51
2022/02/15 10:50:00;;;;;;;6.78;4.72;;;6.40;99.90;;;;;;4986353;28;20046;-50
2022/02/15 10:52:27;;;;;;;8.15;4.60;;;6.30;99.90;;;;;;4990260;28;20117;-50
2022/02/15 10:54:52;;;;;;;5.30;3.88;;;6.30;99.90;;;;;;4990555;28;20041;-51
2022/02/15 10:57:18;;;;;;;6.25;4.25;;;6.40;99.90;;;;;;4991103;28;20038;-51
2022/02/15 10:59:47;;;;;;;7.75;4.07;;;6.40;99.90;;;;;;4992036;28;20105;-50
2022/02/15 11:02:25;;;;;;;5.15;4.18;;;6.30;99.90;;;;;;4987924;28;20042;-50
2022/02/15 11:04:51;;;;;;;5.23;4.20;;;6.40;99.90;;;;;;4987485;28;20442;-50
2022/02/15 11:07:22;;;;;;;7.25;4.28;;;6.40;99.90;;;;;;4991644;28;20022;-50
2022/02/15 11:09:53;;;;;;;8.65;4.43;;;6.40;99.90;;;;;;4991715;28;20086;-51
2022/02/15 11:12:38;;;;;;;5.50;3.97;;;6.50;99.90;;;;;;4988731;28;20014;-53
2022/02/15 11:15:05;;;;;;;6.30;3.90;;;6.60;99.90;;;;;;4985136;28;20030;-50
2022/02/15 11:17:33;;;;;;;6.78;4.22;;;6.60;99.90;;;;;;4985796;28;20030;-51
2022/02/15 11:20:02;;;;;;;5.97;3.88;;;6.60;99.90;;;;;;4973757;28;20055;-52
2022/02/15 11:22:28;;;;;;;6.70;3.72;;;6.60;99.90;;;;;;4992205;28;20037;-50
2022/02/15 11:24:56;;;;;;;5.53;3.60;;;6.60;99.90;;;;;;4992065;28;20030;-51
2022/02/15 11:27:22;;;;;;;7.30;4.43;;;6.50;99.90;;;;;;4992741;28;20134;-50
2022/02/15 11:29:56;;;;;;;5.45;3.63;;;6.50;99.90;;;;;;4991870;28;20469;-51
2022/02/15 11:32:23;;;;;;;5.78;3.78;;;6.50;99.90;;;;;;4992554;28;20129;-50
2022/02/15 11:34:49;;;;;;;4.75;3.83;;;6.40;99.90;;;;;;5008614;28;20033;-50
2022/02/15 11:37:21;;;;;;;6.18;3.65;;;6.40;99.90;;;;;;4985507;28;20073;-51
2022/02/15 11:40:08;;;;;;;6.65;3.75;;;6.40;99.90;;;;;;4991420;28;20046;-50
2022/02/15 11:43:04;;;;;;;5.65;3.80;;;6.40;99.90;;;;;;4973163;28;20673;-50
2022/02/15 11:45:30;;;;;;;4.95;3.60;;;6.50;99.90;;;;;;4975656;28;20431;-50
2022/02/15 11:48:05;;;;;;;5.57;3.70;;;6.50;99.90;;;;;;4991365;28;20023;-52
2022/02/15 11:51:01;;;;;;;6.28;4.10;;;6.60;99.90;;;;;;4998757;28;20021;-52
2022/02/15 11:53:28;;;;;;;7.13;4.22;;;6.70;99.90;;;;;;4979735;28;20042;-53
2022/02/15 11:55:54;;;;;;;7.57;4.05;;;6.60;99.90;;;;;;4992192;28;20030;-51
2022/02/15 11:58:19;;;;;;;5.68;4.20;;;6.70;99.90;;;;;;4992075;28;20035;-52
2022/02/15 12:00:45;;;;;;;4.95;3.85;;;6.80;99.90;;;;;;4991500;28;20036;-51
2022/02/15 12:03:18;;;;;;;5.93;3.58;;;6.80;99.90;;;;;;4987595;28;20019;-53
2022/02/15 12:05:46;;;;;;;5.40;3.67;;;6.90;99.90;;;;;;4982931;28;20062;-52
2022/02/15 12:08:13;;;;;;;4.82;3.10;;;6.90;99.90;;;;;;4992573;28;20023;-50
2022/02/15 12:10:43;;;;;;;4.78;3.25;;;6.90;99.90;;;;;;4992066;28;20018;-51
2022/02/15 12:13:17;;;;;;;4.13;2.72;;;7.00;99.90;;;;;;4991212;28;20367;-50
2022/02/15 12:15:52;;;;;;;5.72;3.47;;;7.00;99.90;;;;;;4976331;28;20070;-51
2022/02/15 12:18:31;;;;;;;4.63;3.78;;;7.10;99.90;;;;;;4974863;28;20074;-49
2022/02/15 12:20:57;;;;;;;4.80;3.30;;;7.10;99.90;;;;;;4974994;28;20031;-48
2022/02/15 12:23:24;;;;;;;5.82;3.88;;;7.00;99.90;;;;;;4974461;28;20038;-48
2022/02/15 12:25:49;;;;;;;5.63;3.50;;;7.10;99.90;;;;;;4993463;28;20026;-48
2022/02/15 12:28:26;;;;;;;4.20;3.17;;;7.10;99.90;;;;;;4994195;28;20029;-48
2022/02/15 12:30:53;;;;;;;4.32;2.83;;;7.10;99.90;;;;;;4993124;28;20115;-48
2022/02/15 12:33:20;;;;;;;4.32;3.42;;;7.10;99.90;;;;;;4994067;28;20394;-48
2022/02/15 12:35:55;;;;;;;4.60;3.17;;;7.00;99.90;;;;;;4994389;28;20049;-48
2022/02/15 12:38:21;;;;;;;5.75;3.35;;;7.10;99.90;;;;;;4993673;28;20364;-47
2022/02/15 12:40:47;;;;;;;5.68;3.47;;;7.00;99.90;;;;;;4979668;28;20130;-48
2022/02/15 12:43:13;;;;;;;5.00;3.30;;;7.10;99.90;;;;;;4983013;28;20054;-48
2022/02/15 12:45:45;;;;;;;4.60;3.50;;;7.10;99.90;;;;;;4993511;28;20065;-48
2022/02/15 12:48:11;;;;;;;5.07;3.63;;;7.10;99.90;;;;;;4993754;28;20078;-48
2022/02/15 12:50:37;;;;;;;5.38;3.20;;;7.10;99.90;;;;;;4993495;28;20080;-50
2022/02/15 12:53:03;;;;;;;6.25;3.50;;;7.10;99.90;;;;;;5008559;28;20046;-48
2022/02/15 12:55:30;;;;;;;5.70;3.40;;;7.10;99.90;;;;;;4993391;28;20029;-49
2022/02/15 12:57:55;;;;;;;3.50;3.20;;;7.20;99.90;;;;;;4994279;28;20062;-49
2022/02/15 13:00:25;;;;;;;6.50;3.22;;;7.20;99.90;;;;;;4992881;28;20076;-49
2022/02/15 13:02:51;;;;;;;3.00;2.50;;;7.10;99.90;;;;;;4984888;28;20035;-49